sensor_id;sensor_type;location;lat;lon;timestamp;pressure;altitude;pressure_sealevel;temperature;humidity
20909;BME280;10614;53.198;6.570;2023-03-14T00:01:25;98686.72;;;9.47;100.00
20909;BME280;10614;53.198;6.570;2023-03-14T00:03:27;98680.75;;;9.45;100.00
20909;BME280;10614;53.198;6.570;2023-03-14T00:05:29;98683.38;;;9.45;100.00
20909;BME280;10614;53.198;6.570;2023-03-14T00:07:31;98671.94;;;9.46;100.00
20909;BME280;10614;53.198;6.570;2023-03-14T00:09:37;98679.81;;;9.46;100.00
20909;BME280;10614;53.198;6.570;2023-03-14T00:11:39;98667.63;;;9.45;100.00
20909;BME280;10614;53.198;6.570;2023-03-14T00:13:40;98649.97;;;9.47;100.00
20909;BME280;10614;53.198;6.570;2023-03-14T00:15:43;98649.03;;;9.48;100.00
20909;BME280;10614;53.198;6.570;2023-03-14T00:17:45;98647.25;;;9.49;100.00
20909;BME280;10614;53.198;6.570;2023-03-14T00:19:47;98657.75;;;9.49;100.00
20909;BME280;10614;53.198;6.570;2023-03-14T00:21:52;98651.44;;;9.51;100.00
20909;BME280;10614;53.198;6.570;2023-03-14T00:23:53;98656.47;;;9.55;100.00
20909;BME280;10614;53.198;6.570;2023-03-14T00:25:58;98655.41;;;9.57;100.00
20909;BME280;10614;53.198;6.570;2023-03-14T00:27:59;98658.75;;;9.59;100.00
20909;BME280;10614;53.198;6.570;2023-03-14T00:30:01;98667.47;;;9.60;100.00
20909;BME280;10614;53.198;6.570;2023-03-14T00:32:04;98655.22;;;9.60;100.00
20909;BME280;10614;53.198;6.570;2023-03-14T00:34:06;98650.78;;;9.61;100.00
20909;BME280;10614;53.198;6.570;2023-03-14T00:36:08;98640.19;;;9.62;100.00
20909;BME280;10614;53.198;6.570;2023-03-14T00:38:10;98642.69;;;9.64;100.00
20909;BME280;10614;53.198;6.570;2023-03-14T00:40:12;98637.44;;;9.64;100.00
20909;BME280;10614;53.198;6.570;2023-03-14T00:42:14;98646.13;;;9.64;100.00
20909;BME280;10614;53.198;6.570;2023-03-14T00:44:15;98640.78;;;9.66;100.00
20909;BME280;10614;53.198;6.570;2023-03-14T00:46:17;98638.06;;;9.67;100.00
20909;BME280;10614;53.198;6.570;2023-03-14T00:48:23;98639.84;;;9.67;100.00
20909;BME280;10614;53.198;6.570;2023-03-14T00:50:24;98646.88;;;9.66;100.00
20909;BME280;10614;53.198;6.570;2023-03-14T00:52:26;98642.47;;;9.67;100.00
20909;BME280;10614;53.198;6.570;2023-03-14T00:54:28;98643.31;;;9.67;100.00
20909;BME280;10614;53.198;6.570;2023-03-14T00:56:30;98634.59;;;9.67;100.00
20909;BME280;10614;53.198;6.570;2023-03-14T00:58:31;98633.75;;;9.66;100.00
20909;BME280;10614;53.198;6.570;2023-03-14T01:00:33;98640.78;;;9.66;100.00
20909;BME280;10614;53.198;6.570;2023-03-14T01:02:34;98640.69;;;9.67;100.00
20909;BME280;10614;53.198;6.570;2023-03-14T01:04:37;98627.56;;;9.67;100.00
20909;BME280;10614;53.198;6.570;2023-03-14T01:06:39;98637.09;;;9.68;100.00
20909;BME280;10614;53.198;6.570;2023-03-14T01:08:41;98633.63;;;9.68;100.00
20909;BME280;10614;53.198;6.570;2023-03-14T01:10:42;98641.53;;;9.68;100.00
20909;BME280;10614;53.198;6.570;2023-03-14T01:12:44;98637.94;;;9.69;100.00
20909;BME280;10614;53.198;6.570;2023-03-14T01:14:45;98644.97;;;9.68;100.00
20909;BME280;10614;53.198;6.570;2023-03-14T01:16:47;98638.78;;;9.69;100.00
20909;BME280;10614;53.198;6.570;2023-03-14T01:18:48;98650.13;;;9.70;100.00
20909;BME280;10614;53.198;6.570;2023-03-14T01:20:51;98635.22;;;9.70;100.00
20909;BME280;10614;53.198;6.570;2023-03-14T01:22:53;98635.22;;;9.70;100.00
20909;BME280;10614;53.198;6.570;2023-03-14T01:24:54;98623.72;;;9.71;100.00
20909;BME280;10614;53.198;6.570;2023-03-14T01:26:56;98623.63;;;9.73;100.00
20909;BME280;10614;53.198;6.570;2023-03-14T01:28:58;98621.97;;;9.72;100.00
20909;BME280;10614;53.198;6.570;2023-03-14T01:31:01;98627.97;;;9.74;100.00
20909;BME280;10614;53.198;6.570;2023-03-14T01:33:03;98620.78;;;9.76;100.00
20909;BME280;10614;53.198;6.570;2023-03-14T01:35:05;98625.09;;;9.77;100.00
20909;BME280;10614;53.198;6.570;2023-03-14T01:37:08;98631.19;;;9.78;100.00
20909;BME280;10614;53.198;6.570;2023-03-14T01:39:12;98648.66;;;9.79;100.00
20909;BME280;10614;53.198;6.570;2023-03-14T01:41:15;98629.41;;;9.78;100.00
20909;BME280;10614;53.198;6.570;2023-03-14T01:43:18;98622.13;;;9.82;100.00
20909;BME280;10614;53.198;6.570;2023-03-14T01:47:44;98635.19;;;9.83;100.00
20909;BME280;10614;53.198;6.570;2023-03-14T01:49:46;98634.31;;;9.83;100.00
20909;BME280;10614;53.198;6.570;2023-03-14T01:51:49;98638.63;;;9.84;100.00
20909;BME280;10614;53.198;6.570;2023-03-14T01:53:55;98638.63;;;9.84;100.00
20909;BME280;10614;53.198;6.570;2023-03-14T01:56:00;98632.41;;;9.85;100.00
20909;BME280;10614;53.198;6.570;2023-03-14T01:58:04;98638.63;;;9.84;100.00
20909;BME280;10614;53.198;6.570;2023-03-14T02:00:07;98634.44;;;9.81;100.00
20909;BME280;10614;53.198;6.570;2023-03-14T02:02:12;98644.97;;;9.81;100.00
20909;BME280;10614;53.198;6.570;2023-03-14T02:04:14;98624.88;;;9.80;100.00
20909;BME280;10614;53.198;6.570;2023-03-14T02:06:19;98638.97;;;9.79;100.00
20909;BME280;10614;53.198;6.570;2023-03-14T02:08:23;98638.13;;;9.79;100.00
20909;BME280;10614;53.198;6.570;2023-03-14T02:10:28;98653.16;;;9.77;100.00
20909;BME280;10614;53.198;6.570;2023-03-14T02:12:31;98627.81;;;9.76;100.00
20909;BME280;10614;53.198;6.570;2023-03-14T02:14:34;98642.75;;;9.75;100.00
20909;BME280;10614;53.198;6.570;2023-03-14T02:16:36;98638.47;;;9.74;100.00
20909;BME280;10614;53.198;6.570;2023-03-14T02:18:37;98628.88;;;9.73;100.00
20909;BME280;10614;53.198;6.570;2023-03-14T02:20:41;98606.06;;;9.73;100.00
20909;BME280;10614;53.198;6.570;2023-03-14T02:22:46;98612.41;;;9.71;100.00
20909;BME280;10614;53.198;6.570;2023-03-14T02:24:50;98602.84;;;9.70;100.00
20909;BME280;10614;53.198;6.570;2023-03-14T02:27:12;98596.75;;;9.69;100.00
20909;BME280;10614;53.198;6.570;2023-03-14T02:29:14;98624.09;;;9.67;100.00
20909;BME280;10614;53.198;6.570;2023-03-14T02:31:15;98599.00;;;9.63;100.00
20909;BME280;10614;53.198;6.570;2023-03-14T02:33:18;98598.25;;;9.61;100.00
20909;BME280;10614;53.198;6.570;2023-03-14T02:35:21;98612.44;;;9.58;100.00
20909;BME280;10614;53.198;6.570;2023-03-14T02:37:24;98601.22;;;9.56;100.00
20909;BME280;10614;53.198;6.570;2023-03-14T02:39:29;98602.88;;;9.57;100.00
20909;BME280;10614;53.198;6.570;2023-03-14T02:41:34;98590.81;;;9.55;100.00
20909;BME280;10614;53.198;6.570;2023-03-14T02:43:37;98593.44;;;9.55;100.00
20909;BME280;10614;53.198;6.570;2023-03-14T02:45:40;98595.97;;;9.56;100.00
20909;BME280;10614;53.198;6.570;2023-03-14T02:47:43;98593.44;;;9.55;100.00
20909;BME280;10614;53.198;6.570;2023-03-14T02:49:46;98594.25;;;9.55;100.00
20909;BME280;10614;53.198;6.570;2023-03-14T02:51:48;98597.75;;;9.56;100.00
20909;BME280;10614;53.198;6.570;2023-03-14T02:53:50;98589.75;;;9.57;100.00
20909;BME280;10614;53.198;6.570;2023-03-14T02:55:52;98586.28;;;9.57;100.00
20909;BME280;10614;53.198;6.570;2023-03-14T02:57:53;98635.25;;;9.58;100.00
20909;BME280;10614;53.198;6.570;2023-03-14T02:59:59;98579.47;;;9.54;100.00
20909;BME280;10614;53.198;6.570;2023-03-14T03:02:00;98594.50;;;9.52;100.00
20909;BME280;10614;53.198;6.570;2023-03-14T03:04:03;98593.66;;;9.51;100.00
20909;BME280;10614;53.198;6.570;2023-03-14T03:06:05;98583.59;;;9.45;100.00
20909;BME280;10614;53.198;6.570;2023-03-14T03:08:08;98603.75;;;9.45;100.00
20909;BME280;10614;53.198;6.570;2023-03-14T03:10:13;98595.97;;;9.43;100.00
20909;BME280;10614;53.198;6.570;2023-03-14T03:12:14;98595.28;;;9.41;100.00
20909;BME280;10614;53.198;6.570;2023-03-14T03:14:16;98592.00;;;9.38;100.00
20909;BME280;10614;53.198;6.570;2023-03-14T03:16:19;98592.13;;;9.36;100.00
20909;BME280;10614;53.198;6.570;2023-03-14T03:18:20;98583.63;;;9.33;100.00
20909;BME280;10614;53.198;6.570;2023-03-14T03:20:22;98594.56;;;9.26;100.00
20909;BME280;10614;53.198;6.570;2023-03-14T03:22:23;98583.31;;;9.24;100.00
20909;BME280;10614;53.198;6.570;2023-03-14T03:24:25;98580.91;;;9.21;100.00
20909;BME280;10614;53.198;6.570;2023-03-14T03:26:26;98594.13;;;9.20;100.00
20909;BME280;10614;53.198;6.570;2023-03-14T03:28:28;98594.38;;;9.17;100.00
20909;BME280;10614;53.198;6.570;2023-03-14T03:30:29;98591.13;;;9.13;100.00
20909;BME280;10614;53.198;6.570;2023-03-14T03:32:32;98591.22;;;9.12;100.00
20909;BME280;10614;53.198;6.570;2023-03-14T03:34:34;98583.34;;;9.12;100.00
20909;BME280;10614;53.198;6.570;2023-03-14T03:36:35;98596.69;;;9.08;100.00
20909;BME280;10614;53.198;6.570;2023-03-14T03:38:37;98591.47;;;9.08;100.00
20909;BME280;10614;53.198;6.570;2023-03-14T03:40:38;98587.22;;;9.06;100.00
20909;BME280;10614;53.198;6.570;2023-03-14T03:42:40;98584.84;;;9.03;100.00
20909;BME280;10614;53.198;6.570;2023-03-14T03:44:41;98595.31;;;9.03;100.00
20909;BME280;10614;53.198;6.570;2023-03-14T03:46:43;98584.09;;;9.01;100.00
20909;BME280;10614;53.198;6.570;2023-03-14T03:48:45;98579.91;;;8.98;100.00
20909;BME280;10614;53.198;6.570;2023-03-14T03:50:47;98587.91;;;8.97;100.00
20909;BME280;10614;53.198;6.570;2023-03-14T03:52:49;98584.41;;;8.96;100.00
20909;BME280;10614;53.198;6.570;2023-03-14T03:54:50;98581.91;;;8.95;100.00
20909;BME280;10614;53.198;6.570;2023-03-14T03:56:52;98588.00;;;8.95;100.00
20909;BME280;10614;53.198;6.570;2023-03-14T03:58:53;98586.22;;;8.96;100.00
20909;BME280;10614;53.198;6.570;2023-03-14T04:00:55;98586.44;;;8.93;100.00
20909;BME280;10614;53.198;6.570;2023-03-14T04:02:56;98587.34;;;8.92;100.00
20909;BME280;10614;53.198;6.570;2023-03-14T04:05:01;98583.69;;;8.94;100.00
20909;BME280;10614;53.198;6.570;2023-03-14T04:07:02;98583.69;;;8.94;100.00
20909;BME280;10614;53.198;6.570;2023-03-14T04:09:04;98574.03;;;8.95;100.00
20909;BME280;10614;53.198;6.570;2023-03-14T04:11:06;98586.44;;;8.93;100.00
20909;BME280;10614;53.198;6.570;2023-03-14T04:13:07;98586.53;;;8.91;100.00
20909;BME280;10614;53.198;6.570;2023-03-14T04:15:09;98588.31;;;8.91;100.00
20909;BME280;10614;53.198;6.570;2023-03-14T04:17:11;98591.88;;;8.90;100.00
20909;BME280;10614;53.198;6.570;2023-03-14T04:19:12;98583.28;;;8.87;100.00
20909;BME280;10614;53.198;6.570;2023-03-14T04:21:15;98599.03;;;8.87;100.00
20909;BME280;10614;53.198;6.570;2023-03-14T04:23:17;98586.97;;;8.85;100.00
20909;BME280;10614;53.198;6.570;2023-03-14T04:25:18;98592.22;;;8.85;100.00
20909;BME280;10614;53.198;6.570;2023-03-14T04:27:20;98572.97;;;8.84;100.00
20909;BME280;10614;53.198;6.570;2023-03-14T04:29:24;98589.47;;;8.86;100.00
20909;BME280;10614;53.198;6.570;2023-03-14T04:31:26;98585.19;;;8.85;100.00
20909;BME280;10614;53.198;6.570;2023-03-14T04:33:27;98583.38;;;8.86;100.00
20909;BME280;10614;53.198;6.570;2023-03-14T04:35:30;98578.22;;;8.84;100.00
20909;BME280;10614;53.198;6.570;2023-03-14T04:37:33;98589.59;;;8.85;100.00
20909;BME280;10614;53.198;6.570;2023-03-14T04:39:34;98585.28;;;8.84;100.00
20909;BME280;10614;53.198;6.570;2023-03-14T04:41:36;98581.81;;;8.83;100.00
20909;BME280;10614;53.198;6.570;2023-03-14T04:43:38;98573.13;;;8.83;100.00
20909;BME280;10614;53.198;6.570;2023-03-14T04:45:41;98571.41;;;8.82;100.00
20909;BME280;10614;53.198;6.570;2023-03-14T04:47:42;98571.53;;;8.80;100.00
20909;BME280;10614;53.198;6.570;2023-03-14T04:49:44;98570.69;;;8.80;100.00
20909;BME280;10614;53.198;6.570;2023-03-14T04:51:46;98566.47;;;8.77;100.00
20909;BME280;10614;53.198;6.570;2023-03-14T04:53:48;98565.75;;;8.75;100.00
20909;BME280;10614;53.198;6.570;2023-03-14T04:55:50;98567.63;;;8.73;100.00
20909;BME280;10614;53.198;6.570;2023-03-14T04:57:52;98571.13;;;8.74;100.00
20909;BME280;10614;53.198;6.570;2023-03-14T04:59:53;98562.38;;;8.73;100.00
20909;BME280;10614;53.198;6.570;2023-03-14T05:01:55;98566.94;;;8.71;100.00
20909;BME280;10614;53.198;6.570;2023-03-14T05:03:59;98559.97;;;8.70;100.00
20909;BME280;10614;53.198;6.570;2023-03-14T05:06:00;98548.97;;;8.65;100.00
20909;BME280;10614;53.198;6.570;2023-03-14T05:08:02;98557.50;;;8.69;100.00
20909;BME280;10614;53.198;6.570;2023-03-14T05:10:09;98551.59;;;8.65;100.00
20909;BME280;10614;53.198;6.570;2023-03-14T05:12:11;98558.63;;;8.64;100.00
20909;BME280;10614;53.198;6.570;2023-03-14T05:14:12;98558.72;;;8.63;100.00
20909;BME280;10614;53.198;6.570;2023-03-14T05:16:14;98541.34;;;8.62;100.00
20909;BME280;10614;53.198;6.570;2023-03-14T05:18:15;98555.50;;;8.59;100.00
20909;BME280;10614;53.198;6.570;2023-03-14T05:20:17;98547.81;;;8.56;100.00
20909;BME280;10614;53.198;6.570;2023-03-14T05:22:21;98563.56;;;8.56;100.00
20909;BME280;10614;53.198;6.570;2023-03-14T05:24:23;98566.16;;;8.56;100.00
20909;BME280;10614;53.198;6.570;2023-03-14T05:26:26;98552.00;;;8.59;100.00
20909;BME280;10614;53.198;6.570;2023-03-14T05:28:27;98568.69;;;8.58;100.00
20909;BME280;10614;53.198;6.570;2023-03-14T05:30:30;98567.00;;;8.57;100.00
20909;BME280;10614;53.198;6.570;2023-03-14T05:32:32;98564.38;;;8.57;100.00
20909;BME280;10614;53.198;6.570;2023-03-14T05:34:33;98567.13;;;8.55;100.00
20909;BME280;10614;53.198;6.570;2023-03-14T05:36:35;98566.28;;;8.55;100.00
20909;BME280;10614;53.198;6.570;2023-03-14T05:38:37;98559.34;;;8.54;100.00
20909;BME280;10614;53.198;6.570;2023-03-14T05:40:38;98569.00;;;8.53;100.00
20909;BME280;10614;53.198;6.570;2023-03-14T05:42:41;98556.94;;;8.51;100.00
20909;BME280;10614;53.198;6.570;2023-03-14T05:44:42;98557.16;;;8.48;100.00
20909;BME280;10614;53.198;6.570;2023-03-14T05:46:44;98552.75;;;8.48;100.00
20909;BME280;10614;53.198;6.570;2023-03-14T05:48:45;98563.25;;;8.48;100.00
20909;BME280;10614;53.198;6.570;2023-03-14T05:50:47;98563.25;;;8.48;100.00
20909;BME280;10614;53.198;6.570;2023-03-14T05:52:48;98571.13;;;8.48;100.00
20909;BME280;10614;53.198;6.570;2023-03-14T05:54:51;98577.41;;;8.45;100.00
20909;BME280;10614;53.198;6.570;2023-03-14T05:56:53;98591.44;;;8.44;100.00
20909;BME280;10614;53.198;6.570;2023-03-14T05:58:56;98567.09;;;8.42;100.00
20909;BME280;10614;53.198;6.570;2023-03-14T06:00:57;98579.28;;;8.43;100.00
20909;BME280;10614;53.198;6.570;2023-03-14T06:02:59;98568.81;;;8.43;100.00
20909;BME280;10614;53.198;6.570;2023-03-14T06:05:00;98567.84;;;8.44;100.00
20909;BME280;10614;53.198;6.570;2023-03-14T06:07:01;98573.09;;;8.44;100.00
20909;BME280;10614;53.198;6.570;2023-03-14T06:09:03;98563.56;;;8.43;100.00
20909;BME280;10614;53.198;6.570;2023-03-14T06:11:05;98575.63;;;8.46;100.00
20909;BME280;10614;53.198;6.570;2023-03-14T06:13:07;98571.28;;;8.45;100.00
20909;BME280;10614;53.198;6.570;2023-03-14T06:15:10;98563.75;;;8.40;100.00
20909;BME280;10614;53.198;6.570;2023-03-14T06:17:12;98568.81;;;8.43;100.00
20909;BME280;10614;53.198;6.570;2023-03-14T06:19:14;98580.22;;;8.42;100.00
20909;BME280;10614;53.198;6.570;2023-03-14T06:21:15;98575.09;;;8.41;100.00
20909;BME280;10614;53.198;6.570;2023-03-14T06:23:17;98589.03;;;8.41;100.00
20909;BME280;10614;53.198;6.570;2023-03-14T06:25:19;98599.69;;;8.38;100.00
20909;BME280;10614;53.198;6.570;2023-03-14T06:27:20;98601.59;;;8.36;100.00
20909;BME280;10614;53.198;6.570;2023-03-14T06:29:23;98620.84;;;8.35;100.00
20909;BME280;10614;53.198;6.570;2023-03-14T06:31:26;98601.88;;;8.32;100.00
20909;BME280;10614;53.198;6.570;2023-03-14T06:33:29;98664.25;;;8.27;100.00
20909;BME280;10614;53.198;6.570;2023-03-14T06:35:30;98680.94;;;7.98;100.00
20909;BME280;10614;53.198;6.570;2023-03-14T06:37:32;98670.03;;;7.63;100.00
20909;BME280;10614;53.198;6.570;2023-03-14T06:39:33;98697.00;;;7.36;100.00
20909;BME280;10614;53.198;6.570;2023-03-14T06:41:35;98690.72;;;7.10;100.00
20909;BME280;10614;53.198;6.570;2023-03-14T06:43:36;98698.91;;;6.90;100.00
20909;BME280;10614;53.198;6.570;2023-03-14T06:45:38;98709.44;;;6.74;100.00
20909;BME280;10614;53.198;6.570;2023-03-14T06:47:41;98710.34;;;6.59;100.00
20909;BME280;10614;53.198;6.570;2023-03-14T06:49:42;98725.78;;;6.47;100.00
20909;BME280;10614;53.198;6.570;2023-03-14T06:51:44;98735.09;;;6.37;100.00
20909;BME280;10614;53.198;6.570;2023-03-14T06:53:46;98748.09;;;6.23;100.00
20909;BME280;10614;53.198;6.570;2023-03-14T06:55:47;98759.53;;;6.04;100.00
20909;BME280;10614;53.198;6.570;2023-03-14T06:57:49;98770.84;;;5.87;100.00
20909;BME280;10614;53.198;6.570;2023-03-14T06:59:50;98778.75;;;5.70;100.00
20909;BME280;10614;53.198;6.570;2023-03-14T07:01:53;98777.03;;;5.53;100.00
20909;BME280;10614;53.198;6.570;2023-03-14T07:03:56;98785.50;;;5.41;100.00
20909;BME280;10614;53.198;6.570;2023-03-14T07:05:59;98793.09;;;5.28;100.00
20909;BME280;10614;53.198;6.570;2023-03-14T07:08:01;98811.00;;;5.18;100.00
20909;BME280;10614;53.198;6.570;2023-03-14T07:10:04;98829.72;;;5.09;100.00
20909;BME280;10614;53.198;6.570;2023-03-14T07:12:08;98844.13;;;4.99;100.00
20909;BME280;10614;53.198;6.570;2023-03-14T07:14:10;98861.84;;;4.92;100.00
20909;BME280;10614;53.198;6.570;2023-03-14T07:16:11;98872.53;;;4.86;100.00
20909;BME280;10614;53.198;6.570;2023-03-14T07:18:13;98866.72;;;4.81;100.00
20909;BME280;10614;53.198;6.570;2023-03-14T07:20:19;98877.91;;;4.83;100.00
20909;BME280;10614;53.198;6.570;2023-03-14T07:22:20;98890.03;;;4.84;100.00
20909;BME280;10614;53.198;6.570;2023-03-14T07:24:22;98917.09;;;4.81;100.00
20909;BME280;10614;53.198;6.570;2023-03-14T07:26:23;98890.75;;;4.69;100.00
20909;BME280;10614;53.198;6.570;2023-03-14T07:28:25;98914.28;;;4.67;100.00
20909;BME280;10614;53.198;6.570;2023-03-14T07:30:27;98926.53;;;4.65;100.00
20909;BME280;10614;53.198;6.570;2023-03-14T07:32:29;98940.63;;;4.61;100.00
20909;BME280;10614;53.198;6.570;2023-03-14T07:34:30;98940.00;;;4.56;100.00
20909;BME280;10614;53.198;6.570;2023-03-14T07:36:33;98951.75;;;4.46;100.00
20909;BME280;10614;53.198;6.570;2023-03-14T07:38:34;98953.78;;;4.39;100.00
20909;BME280;10614;53.198;6.570;2023-03-14T07:40:36;98965.03;;;4.39;100.00
20909;BME280;10614;53.198;6.570;2023-03-14T07:42:37;98963.28;;;4.40;100.00
20909;BME280;10614;53.198;6.570;2023-03-14T07:44:39;98999.75;;;4.40;100.00
20909;BME280;10614;53.198;6.570;2023-03-14T07:46:41;98990.25;;;4.39;100.00
20909;BME280;10614;53.198;6.570;2023-03-14T07:48:42;98990.44;;;4.34;100.00
20909;BME280;10614;53.198;6.570;2023-03-14T07:50:44;98992.28;;;4.32;100.00
20909;BME280;10614;53.198;6.570;2023-03-14T07:52:51;99006.09;;;4.34;100.00
20909;BME280;10614;53.198;6.570;2023-03-14T07:54:52;99022.34;;;4.39;100.00
20909;BME280;10614;53.198;6.570;2023-03-14T07:56:54;99020.53;;;4.41;100.00
20909;BME280;10614;53.198;6.570;2023-03-14T07:58:56;99037.16;;;4.39;100.00
20909;BME280;10614;53.198;6.570;2023-03-14T08:00:59;99051.34;;;4.32;100.00
20909;BME280;10614;53.198;6.570;2023-03-14T08:03:00;99039.38;;;4.28;100.00
20909;BME280;10614;53.198;6.570;2023-03-14T08:05:02;99045.50;;;4.27;100.00
20909;BME280;10614;53.198;6.570;2023-03-14T08:07:04;99051.59;;;4.26;100.00
20909;BME280;10614;53.198;6.570;2023-03-14T08:09:07;99060.16;;;4.29;100.00
20909;BME280;10614;53.198;6.570;2023-03-14T08:11:08;99063.34;;;4.36;100.00
20909;BME280;10614;53.198;6.570;2023-03-14T08:13:10;99070.88;;;4.42;100.00
20909;BME280;10614;53.198;6.570;2023-03-14T08:15:12;99079.41;;;4.46;100.00
20909;BME280;10614;53.198;6.570;2023-03-14T08:17:32;99091.47;;;4.48;100.00
20909;BME280;10614;53.198;6.570;2023-03-14T08:19:33;99086.03;;;4.53;100.00
20909;BME280;10614;53.198;6.570;2023-03-14T08:21:35;99095.34;;;4.58;100.00
20909;BME280;10614;53.198;6.570;2023-03-14T08:23:36;99110.09;;;4.59;100.00
20909;BME280;10614;53.198;6.570;2023-03-14T08:25:39;99118.81;;;4.58;100.00
20909;BME280;10614;53.198;6.570;2023-03-14T08:27:41;99112.81;;;4.56;100.00
20909;BME280;10614;53.198;6.570;2023-03-14T08:29:43;99128.25;;;4.61;100.00
20909;BME280;10614;53.198;6.570;2023-03-14T08:31:44;99142.97;;;4.62;100.00
20909;BME280;10614;53.198;6.570;2023-03-14T08:33:46;99149.03;;;4.62;100.00
20909;BME280;10614;53.198;6.570;2023-03-14T08:35:47;99157.63;;;4.64;100.00
20909;BME280;10614;53.198;6.570;2023-03-14T08:37:49;99164.66;;;4.62;100.00
20909;BME280;10614;53.198;6.570;2023-03-14T08:39:52;99168.06;;;4.64;100.00
20909;BME280;10614;53.198;6.570;2023-03-14T08:41:54;99163.63;;;4.67;100.00
20909;BME280;10614;53.198;6.570;2023-03-14T08:43:56;99171.25;;;4.71;100.00
20909;BME280;10614;53.198;6.570;2023-03-14T08:45:57;99187.53;;;4.76;100.00
20909;BME280;10614;53.198;6.570;2023-03-14T08:48:00;99181.28;;;4.80;100.00
20909;BME280;10614;53.198;6.570;2023-03-14T08:50:02;99197.63;;;4.84;100.00
20909;BME280;10614;53.198;6.570;2023-03-14T08:52:04;99202.78;;;4.85;100.00
20909;BME280;10614;53.198;6.570;2023-03-14T08:54:09;99198.28;;;4.89;100.00
20909;BME280;10614;53.198;6.570;2023-03-14T08:56:10;99202.53;;;4.92;100.00
20909;BME280;10614;53.198;6.570;2023-03-14T08:58:13;99213.72;;;4.94;100.00
20909;BME280;10614;53.198;6.570;2023-03-14T09:00:15;99216.22;;;4.97;100.00
20909;BME280;10614;53.198;6.570;2023-03-14T09:02:17;99221.34;;;4.98;100.00
20909;BME280;10614;53.198;6.570;2023-03-14T09:04:18;99235.13;;;5.02;100.00
20909;BME280;10614;53.198;6.570;2023-03-14T09:06:20;99237.53;;;5.06;100.00
20909;BME280;10614;53.198;6.570;2023-03-14T09:08:22;99245.22;;;5.10;100.00
20909;BME280;10614;53.198;6.570;2023-03-14T09:10:24;99252.91;;;5.13;100.00
20909;BME280;10614;53.198;6.570;2023-03-14T09:12:25;99260.53;;;5.17;100.00
20909;BME280;10614;53.198;6.570;2023-03-14T09:14:28;99284.59;;;5.24;100.00
20909;BME280;10614;53.198;6.570;2023-03-14T09:16:30;99275.03;;;5.24;100.00
20909;BME280;10614;53.198;6.570;2023-03-14T09:18:32;99290.59;;;5.26;100.00
20909;BME280;10614;53.198;6.570;2023-03-14T09:20:34;99300.00;;;5.30;100.00
20909;BME280;10614;53.198;6.570;2023-03-14T09:22:36;99319.09;;;5.31;100.00
20909;BME280;10614;53.198;6.570;2023-03-14T09:24:37;99326.03;;;5.32;100.00
20909;BME280;10614;53.198;6.570;2023-03-14T09:26:39;99332.88;;;5.34;100.00
20909;BME280;10614;53.198;6.570;2023-03-14T09:28:40;99337.31;;;5.32;100.00
20909;BME280;10614;53.198;6.570;2023-03-14T09:30:43;99349.41;;;5.33;100.00
20909;BME280;10614;53.198;6.570;2023-03-14T09:32:45;99351.97;;;5.35;100.00
20909;BME280;10614;53.198;6.570;2023-03-14T09:34:47;99353.66;;;5.36;100.00
20909;BME280;10614;53.198;6.570;2023-03-14T09:36:49;99367.59;;;5.36;100.00
20909;BME280;10614;53.198;6.570;2023-03-14T09:38:50;99386.56;;;5.40;100.00
20909;BME280;10614;53.198;6.570;2023-03-14T09:40:52;99390.94;;;5.39;100.00
20909;BME280;10614;53.198;6.570;2023-03-14T09:42:53;99398.09;;;5.34;100.00
20909;BME280;10614;53.198;6.570;2023-03-14T09:44:56;99393.91;;;5.30;100.00
20909;BME280;10614;53.198;6.570;2023-03-14T09:47:03;99407.81;;;5.31;100.00
20909;BME280;10614;53.198;6.570;2023-03-14T09:49:09;99403.50;;;5.29;100.00
20909;BME280;10614;53.198;6.570;2023-03-14T09:51:12;99410.34;;;5.32;100.00
20909;BME280;10614;53.198;6.570;2023-03-14T09:53:19;99427.69;;;5.33;100.00
20909;BME280;10614;53.198;6.570;2023-03-14T09:55:22;99430.25;;;5.35;100.00
20909;BME280;10614;53.198;6.570;2023-03-14T09:57:25;99436.19;;;5.38;100.00
20909;BME280;10614;53.198;6.570;2023-03-14T09:59:27;99457.00;;;5.40;100.00
20909;BME280;10614;53.198;6.570;2023-03-14T10:01:30;99458.81;;;5.38;100.00
20909;BME280;10614;53.198;6.570;2023-03-14T10:03:34;99476.19;;;5.39;100.00
20909;BME280;10614;53.198;6.570;2023-03-14T10:05:35;99488.38;;;5.38;100.00
20909;BME280;10614;53.198;6.570;2023-03-14T10:07:37;99499.00;;;5.34;100.00
20909;BME280;10614;53.198;6.570;2023-03-14T10:09:43;99494.69;;;5.33;100.00
20909;BME280;10614;53.198;6.570;2023-03-14T10:11:44;99502.53;;;5.33;100.00
20909;BME280;10614;53.198;6.570;2023-03-14T10:13:46;99514.78;;;5.31;100.00
20909;BME280;10614;53.198;6.570;2023-03-14T10:15:51;99527.88;;;5.29;100.00
20909;BME280;10614;53.198;6.570;2023-03-14T10:17:53;99534.84;;;5.28;100.00
20909;BME280;10614;53.198;6.570;2023-03-14T10:19:56;99545.38;;;5.27;100.00
20909;BME280;10614;53.198;6.570;2023-03-14T10:22:00;99546.13;;;5.29;99.22
20909;BME280;10614;53.198;6.570;2023-03-14T10:24:19;99547.00;;;5.29;100.00
20909;BME280;10614;53.198;6.570;2023-03-14T10:26:23;99557.44;;;5.29;100.00
20909;BME280;10614;53.198;6.570;2023-03-14T10:28:26;99552.84;;;5.36;97.53
20909;BME280;10614;53.198;6.570;2023-03-14T10:30:33;99577.09;;;5.38;97.33
20909;BME280;10614;53.198;6.570;2023-03-14T10:32:38;99574.31;;;5.43;94.74
20909;BME280;10614;53.198;6.570;2023-03-14T10:34:42;99582.22;;;5.41;91.83
20909;BME280;10614;53.198;6.570;2023-03-14T10:36:45;99577.97;;;5.39;90.42
20909;BME280;10614;53.198;6.570;2023-03-14T10:38:46;99603.31;;;5.35;89.06
20909;BME280;10614;53.198;6.570;2023-03-14T10:40:49;99582.44;;;5.35;89.97
20909;BME280;10614;53.198;6.570;2023-03-14T10:42:53;99605.03;;;5.36;90.18
20909;BME280;10614;53.198;6.570;2023-03-14T10:44:56;99604.06;;;5.39;88.94
20909;BME280;10614;53.198;6.570;2023-03-14T10:46:59;99632.88;;;5.36;83.69
20909;BME280;10614;53.198;6.570;2023-03-14T10:49:03;99633.66;;;5.38;84.11
20909;BME280;10614;53.198;6.570;2023-03-14T10:51:06;99623.97;;;5.41;83.59